sensor_id;sensor_type;location;lat;lon;timestamp;P1;durP1;ratioP1;P2;durP2;ratioP2
64031;SDS011;50278;47.796;11.968;2022-09-16T00:02:00;5.50;;;4.07;;
64031;SDS011;50278;47.796;11.968;2022-09-16T00:04:26;3.83;;;3.30;;
64031;SDS011;50278;47.796;11.968;2022-09-16T00:06:51;3.55;;;2.95;;
64031;SDS011;50278;47.796;11.968;2022-09-16T00:09:17;3.40;;;3.10;;
64031;SDS011;50278;47.796;11.968;2022-09-16T00:11:42;5.10;;;2.90;;
64031;SDS011;50278;47.796;11.968;2022-09-16T00:14:08;3.55;;;3.25;;
64031;SDS011;50278;47.796;11.968;2022-09-16T00:16:34;3.42;;;2.72;;
64031;SDS011;50278;47.796;11.968;2022-09-16T00:18:59;3.50;;;3.13;;
64031;SDS011;50278;47.796;11.968;2022-09-16T00:21:26;6.03;;;3.00;;
64031;SDS011;50278;47.796;11.968;2022-09-16T00:23:52;5.65;;;3.35;;
64031;SDS011;50278;47.796;11.968;2022-09-16T00:26:19;5.88;;;3.38;;
64031;SDS011;50278;47.796;11.968;2022-09-16T00:28:48;3.85;;;3.22;;
64031;SDS011;50278;47.796;11.968;2022-09-16T00:31:15;3.53;;;3.03;;
64031;SDS011;50278;47.796;11.968;2022-09-16T00:33:41;3.35;;;3.00;;
64031;SDS011;50278;47.796;11.968;2022-09-16T00:38:36;3.42;;;3.10;;
64031;SDS011;50278;47.796;11.968;2022-09-16T00:41:03;4.05;;;3.65;;
64031;SDS011;50278;47.796;11.968;2022-09-16T00:43:51;3.47;;;3.17;;
64031;SDS011;50278;47.796;11.968;2022-09-16T00:46:16;5.32;;;3.85;;
64031;SDS011;50278;47.796;11.968;2022-09-16T00:48:45;3.80;;;3.40;;
64031;SDS011;50278;47.796;11.968;2022-09-16T00:51:11;3.20;;;2.90;;
64031;SDS011;50278;47.796;11.968;2022-09-16T00:53:39;4.85;;;3.97;;
64031;SDS011;50278;47.796;11.968;2022-09-16T00:56:13;2.97;;;2.63;;
64031;SDS011;50278;47.796;11.968;2022-09-16T00:58:42;4.25;;;3.10;;
64031;SDS011;50278;47.796;11.968;2022-09-16T01:01:11;5.57;;;2.97;;
64031;SDS011;50278;47.796;11.968;2022-09-16T01:03:38;4.28;;;3.15;;
64031;SDS011;50278;47.796;11.968;2022-09-16T01:06:08;4.03;;;3.17;;
64031;SDS011;50278;47.796;11.968;2022-09-16T01:08:36;4.65;;;3.38;;
64031;SDS011;50278;47.796;11.968;2022-09-16T01:11:01;3.97;;;3.58;;
64031;SDS011;50278;47.796;11.968;2022-09-16T01:13:27;6.88;;;3.60;;
64031;SDS011;50278;47.796;11.968;2022-09-16T01:18:52;3.25;;;2.95;;
64031;SDS011;50278;47.796;11.968;2022-09-16T01:33:11;3.58;;;3.00;;
64031;SDS011;50278;47.796;11.968;2022-09-16T01:48:55;4.70;;;4.20;;
64031;SDS011;50278;47.796;11.968;2022-09-16T01:51:48;4.00;;;3.60;;
64031;SDS011;50278;47.796;11.968;2022-09-16T01:54:31;4.32;;;3.78;;
64031;SDS011;50278;47.796;11.968;2022-09-16T01:59:40;5.63;;;4.30;;
64031;SDS011;50278;47.796;11.968;2022-09-16T02:02:11;5.43;;;3.50;;
64031;SDS011;50278;47.796;11.968;2022-09-16T02:04:43;3.83;;;3.22;;
64031;SDS011;50278;47.796;11.968;2022-09-16T02:07:15;3.70;;;3.30;;
64031;SDS011;50278;47.796;11.968;2022-09-16T02:09:46;4.20;;;3.45;;
64031;SDS011;50278;47.796;11.968;2022-09-16T02:12:17;3.87;;;3.57;;
64031;SDS011;50278;47.796;11.968;2022-09-16T02:14:47;5.18;;;4.32;;
64031;SDS011;50278;47.796;11.968;2022-09-16T02:17:17;4.32;;;3.92;;
64031;SDS011;50278;47.796;11.968;2022-09-16T02:20:00;5.07;;;4.57;;
64031;SDS011;50278;47.796;11.968;2022-09-16T02:22:37;5.00;;;4.60;;
64031;SDS011;50278;47.796;11.968;2022-09-16T02:25:06;5.50;;;4.50;;
64031;SDS011;50278;47.796;11.968;2022-09-16T02:27:33;5.30;;;4.70;;
64031;SDS011;50278;47.796;11.968;2022-09-16T02:30:04;4.57;;;4.18;;
64031;SDS011;50278;47.796;11.968;2022-09-16T02:32:46;5.95;;;4.20;;
64031;SDS011;50278;47.796;11.968;2022-09-16T02:35:17;5.32;;;4.45;;
64031;SDS011;50278;47.796;11.968;2022-09-16T02:37:47;4.85;;;4.35;;
64031;SDS011;50278;47.796;11.968;2022-09-16T02:40:17;6.25;;;4.85;;
64031;SDS011;50278;47.796;11.968;2022-09-16T02:42:48;5.13;;;4.05;;
64031;SDS011;50278;47.796;11.968;2022-09-16T02:45:14;5.15;;;3.95;;
64031;SDS011;50278;47.796;11.968;2022-09-16T02:53:51;6.30;;;3.90;;
64031;SDS011;50278;47.796;11.968;2022-09-16T02:56:23;4.97;;;4.55;;
64031;SDS011;50278;47.796;11.968;2022-09-16T02:58:54;4.63;;;4.22;;
64031;SDS011;50278;47.796;11.968;2022-09-16T03:01:19;3.88;;;3.50;;
64031;SDS011;50278;47.796;11.968;2022-09-16T03:03:46;3.33;;;2.70;;
64031;SDS011;50278;47.796;11.968;2022-09-16T03:06:16;5.53;;;2.80;;
64031;SDS011;50278;47.796;11.968;2022-09-16T03:11:14;3.85;;;2.55;;
64031;SDS011;50278;47.796;11.968;2022-09-16T03:13:51;3.63;;;2.88;;
64031;SDS011;50278;47.796;11.968;2022-09-16T03:16:29;7.03;;;3.15;;
64031;SDS011;50278;47.796;11.968;2022-09-16T03:19:19;4.35;;;3.13;;
64031;SDS011;50278;47.796;11.968;2022-09-16T03:22:01;3.88;;;3.13;;
64031;SDS011;50278;47.796;11.968;2022-09-16T03:27:59;4.38;;;2.90;;
64031;SDS011;50278;47.796;11.968;2022-09-16T03:30:23;4.47;;;2.20;;
64031;SDS011;50278;47.796;11.968;2022-09-16T03:32:57;4.78;;;2.75;;
64031;SDS011;50278;47.796;11.968;2022-09-16T03:35:29;3.33;;;2.60;;
64031;SDS011;50278;47.796;11.968;2022-09-16T03:38:08;6.15;;;2.63;;
64031;SDS011;50278;47.796;11.968;2022-09-16T03:40:36;3.25;;;2.30;;
64031;SDS011;50278;47.796;11.968;2022-09-16T03:43:12;3.85;;;2.38;;
64031;SDS011;50278;47.796;11.968;2022-09-16T03:45:40;2.97;;;2.35;;
64031;SDS011;50278;47.796;11.968;2022-09-16T03:48:07;4.97;;;2.80;;
64031;SDS011;50278;47.796;11.968;2022-09-16T03:50:34;3.03;;;2.58;;
64031;SDS011;50278;47.796;11.968;2022-09-16T03:52:59;4.53;;;3.20;;
64031;SDS011;50278;47.796;11.968;2022-09-16T03:55:25;3.72;;;3.13;;
64031;SDS011;50278;47.796;11.968;2022-09-16T03:57:53;3.67;;;2.67;;
64031;SDS011;50278;47.796;11.968;2022-09-16T04:00:19;3.08;;;2.33;;
64031;SDS011;50278;47.796;11.968;2022-09-16T04:02:46;3.38;;;2.65;;
64031;SDS011;50278;47.796;11.968;2022-09-16T04:05:11;3.13;;;2.83;;
64031;SDS011;50278;47.796;11.968;2022-09-16T04:07:37;2.45;;;2.22;;
64031;SDS011;50278;47.796;11.968;2022-09-16T04:10:03;2.65;;;2.20;;
64031;SDS011;50278;47.796;11.968;2022-09-16T04:12:29;2.38;;;2.17;;
64031;SDS011;50278;47.796;11.968;2022-09-16T04:14:55;3.03;;;2.40;;
64031;SDS011;50278;47.796;11.968;2022-09-16T04:17:21;3.92;;;2.25;;
64031;SDS011;50278;47.796;11.968;2022-09-16T04:19:47;3.92;;;2.30;;
64031;SDS011;50278;47.796;11.968;2022-09-16T04:22:12;3.13;;;2.55;;
64031;SDS011;50278;47.796;11.968;2022-09-16T04:24:38;2.25;;;1.90;;
64031;SDS011;50278;47.796;11.968;2022-09-16T04:27:03;4.18;;;2.40;;
64031;SDS011;50278;47.796;11.968;2022-09-16T04:29:29;4.68;;;2.28;;
64031;SDS011;50278;47.796;11.968;2022-09-16T04:31:56;3.15;;;2.50;;
64031;SDS011;50278;47.796;11.968;2022-09-16T04:34:22;3.13;;;2.83;;
64031;SDS011;50278;47.796;11.968;2022-09-16T04:36:47;2.80;;;2.50;;
64031;SDS011;50278;47.796;11.968;2022-09-16T04:39:13;3.10;;;2.28;;
64031;SDS011;50278;47.796;11.968;2022-09-16T04:41:38;4.75;;;2.50;;
64031;SDS011;50278;47.796;11.968;2022-09-16T04:44:04;4.25;;;2.45;;
64031;SDS011;50278;47.796;11.968;2022-09-16T04:46:30;3.08;;;2.78;;
64031;SDS011;50278;47.796;11.968;2022-09-16T04:48:57;2.53;;;2.33;;
64031;SDS011;50278;47.796;11.968;2022-09-16T04:51:24;4.10;;;2.40;;
64031;SDS011;50278;47.796;11.968;2022-09-16T04:53:54;6.07;;;2.20;;
64031;SDS011;50278;47.796;11.968;2022-09-16T04:56:22;3.83;;;2.33;;
64031;SDS011;50278;47.796;11.968;2022-09-16T04:58:50;4.10;;;2.40;;
64031;SDS011;50278;47.796;11.968;2022-09-16T05:01:18;2.50;;;2.30;;
64031;SDS011;50278;47.796;11.968;2022-09-16T05:03:46;3.80;;;2.70;;
64031;SDS011;50278;47.796;11.968;2022-09-16T05:06:17;3.15;;;2.47;;
64031;SDS011;50278;47.796;11.968;2022-09-16T05:08:45;2.80;;;2.50;;
64031;SDS011;50278;47.796;11.968;2022-09-16T05:11:11;3.60;;;2.63;;
64031;SDS011;50278;47.796;11.968;2022-09-16T05:13:38;4.55;;;2.38;;
64031;SDS011;50278;47.796;11.968;2022-09-16T05:16:05;3.20;;;2.58;;
64031;SDS011;50278;47.796;11.968;2022-09-16T05:18:36;5.83;;;3.20;;
64031;SDS011;50278;47.796;11.968;2022-09-16T05:21:03;4.00;;;2.95;;
64031;SDS011;50278;47.796;11.968;2022-09-16T05:23:31;3.35;;;2.60;;
64031;SDS011;50278;47.796;11.968;2022-09-16T05:26:08;4.45;;;3.00;;
64031;SDS011;50278;47.796;11.968;2022-09-16T05:28:35;3.83;;;2.70;;
64031;SDS011;50278;47.796;11.968;2022-09-16T05:31:14;4.10;;;3.00;;
64031;SDS011;50278;47.796;11.968;2022-09-16T05:33:40;3.33;;;2.67;;
64031;SDS011;50278;47.796;11.968;2022-09-16T05:36:09;4.00;;;2.78;;
64031;SDS011;50278;47.796;11.968;2022-09-16T05:38:37;3.75;;;2.80;;
64031;SDS011;50278;47.796;11.968;2022-09-16T05:41:03;3.25;;;2.67;;
64031;SDS011;50278;47.796;11.968;2022-09-16T05:43:29;2.40;;;2.13;;
64031;SDS011;50278;47.796;11.968;2022-09-16T05:45:55;3.55;;;2.50;;
64031;SDS011;50278;47.796;11.968;2022-09-16T05:48:21;6.63;;;2.47;;
64031;SDS011;50278;47.796;11.968;2022-09-16T05:50:51;3.55;;;2.80;;
64031;SDS011;50278;47.796;11.968;2022-09-16T05:53:18;3.20;;;2.70;;
64031;SDS011;50278;47.796;11.968;2022-09-16T05:58:33;2.83;;;2.50;;
64031;SDS011;50278;47.796;11.968;2022-09-16T06:01:06;4.03;;;2.45;;
64031;SDS011;50278;47.796;11.968;2022-09-16T06:03:34;3.90;;;2.97;;
64031;SDS011;50278;47.796;11.968;2022-09-16T06:06:02;3.67;;;2.67;;
64031;SDS011;50278;47.796;11.968;2022-09-16T06:08:30;3.13;;;2.70;;
64031;SDS011;50278;47.796;11.968;2022-09-16T06:11:01;2.85;;;2.10;;
64031;SDS011;50278;47.796;11.968;2022-09-16T06:13:28;4.78;;;2.58;;
64031;SDS011;50278;47.796;11.968;2022-09-16T06:15:54;4.03;;;2.72;;
64031;SDS011;50278;47.796;11.968;2022-09-16T06:18:20;4.22;;;3.13;;
64031;SDS011;50278;47.796;11.968;2022-09-16T06:20:47;4.75;;;2.70;;
64031;SDS011;50278;47.796;11.968;2022-09-16T06:23:13;3.35;;;2.20;;
64031;SDS011;50278;47.796;11.968;2022-09-16T06:25:38;3.13;;;2.58;;
64031;SDS011;50278;47.796;11.968;2022-09-16T06:28:04;4.68;;;3.00;;
64031;SDS011;50278;47.796;11.968;2022-09-16T06:30:30;3.47;;;2.42;;
64031;SDS011;50278;47.796;11.968;2022-09-16T06:32:56;4.25;;;2.28;;
64031;SDS011;50278;47.796;11.968;2022-09-16T06:35:21;3.67;;;2.20;;
64031;SDS011;50278;47.796;11.968;2022-09-16T06:37:47;3.53;;;2.58;;
64031;SDS011;50278;47.796;11.968;2022-09-16T06:40:12;4.75;;;2.67;;
64031;SDS011;50278;47.796;11.968;2022-09-16T06:42:38;4.93;;;2.40;;
64031;SDS011;50278;47.796;11.968;2022-09-16T06:45:04;2.83;;;2.50;;
64031;SDS011;50278;47.796;11.968;2022-09-16T06:47:30;6.50;;;2.55;;
64031;SDS011;50278;47.796;11.968;2022-09-16T06:49:57;2.20;;;1.92;;
64031;SDS011;50278;47.796;11.968;2022-09-16T06:52:23;2.70;;;1.98;;
64031;SDS011;50278;47.796;11.968;2022-09-16T06:54:49;3.30;;;2.30;;
64031;SDS011;50278;47.796;11.968;2022-09-16T06:57:15;3.53;;;2.45;;
64031;SDS011;50278;47.796;11.968;2022-09-16T06:59:42;3.47;;;1.90;;
64031;SDS011;50278;47.796;11.968;2022-09-16T07:02:08;4.93;;;2.03;;
64031;SDS011;50278;47.796;11.968;2022-09-16T07:04:35;3.50;;;2.80;;
64031;SDS011;50278;47.796;11.968;2022-09-16T07:07:00;6.78;;;2.97;;
64031;SDS011;50278;47.796;11.968;2022-09-16T07:09:25;3.75;;;2.88;;
64031;SDS011;50278;47.796;11.968;2022-09-16T07:11:51;4.85;;;2.22;;
64031;SDS011;50278;47.796;11.968;2022-09-16T07:14:16;2.80;;;1.85;;
64031;SDS011;50278;47.796;11.968;2022-09-16T07:16:42;4.20;;;2.45;;
64031;SDS011;50278;47.796;11.968;2022-09-16T07:19:08;2.60;;;2.08;;
64031;SDS011;50278;47.796;11.968;2022-09-16T07:21:33;3.50;;;1.92;;
64031;SDS011;50278;47.796;11.968;2022-09-16T07:23:59;2.63;;;2.30;;
64031;SDS011;50278;47.796;11.968;2022-09-16T07:26:27;4.50;;;2.00;;
64031;SDS011;50278;47.796;11.968;2022-09-16T07:28:57;4.60;;;2.08;;
64031;SDS011;50278;47.796;11.968;2022-09-16T07:31:25;5.28;;;2.17;;
64031;SDS011;50278;47.796;11.968;2022-09-16T07:33:53;2.83;;;2.05;;
64031;SDS011;50278;47.796;11.968;2022-09-16T07:36:22;3.20;;;2.10;;
64031;SDS011;50278;47.796;11.968;2022-09-16T07:38:49;2.78;;;2.00;;
64031;SDS011;50278;47.796;11.968;2022-09-16T07:41:19;3.42;;;2.20;;
64031;SDS011;50278;47.796;11.968;2022-09-16T07:43:46;2.50;;;1.83;;
64031;SDS011;50278;47.796;11.968;2022-09-16T07:46:13;5.07;;;2.30;;
64031;SDS011;50278;47.796;11.968;2022-09-16T07:48:40;3.88;;;2.20;;
64031;SDS011;50278;47.796;11.968;2022-09-16T07:51:07;4.13;;;2.70;;
64031;SDS011;50278;47.796;11.968;2022-09-16T07:53:37;4.10;;;2.92;;
64031;SDS011;50278;47.796;11.968;2022-09-16T07:56:05;6.38;;;3.00;;
64031;SDS011;50278;47.796;11.968;2022-09-16T07:58:32;3.83;;;2.30;;
64031;SDS011;50278;47.796;11.968;2022-09-16T08:00:57;3.28;;;2.13;;
64031;SDS011;50278;47.796;11.968;2022-09-16T08:03:23;3.88;;;2.95;;
64031;SDS011;50278;47.796;11.968;2022-09-16T08:05:49;2.90;;;2.30;;
64031;SDS011;50278;47.796;11.968;2022-09-16T08:08:14;4.68;;;2.95;;
64031;SDS011;50278;47.796;11.968;2022-09-16T08:10:40;3.50;;;2.13;;
64031;SDS011;50278;47.796;11.968;2022-09-16T08:13:06;4.68;;;2.55;;
64031;SDS011;50278;47.796;11.968;2022-09-16T08:15:32;3.92;;;2.60;;
64031;SDS011;50278;47.796;11.968;2022-09-16T08:17:59;2.78;;;2.20;;
64031;SDS011;50278;47.796;11.968;2022-09-16T08:20:24;4.88;;;2.67;;
64031;SDS011;50278;47.796;11.968;2022-09-16T08:22:51;3.33;;;2.22;;
64031;SDS011;50278;47.796;11.968;2022-09-16T08:25:17;5.95;;;3.90;;
64031;SDS011;50278;47.796;11.968;2022-09-16T08:27:42;3.35;;;2.20;;
64031;SDS011;50278;47.796;11.968;2022-09-16T08:30:08;2.88;;;1.80;;
64031;SDS011;50278;47.796;11.968;2022-09-16T08:32:35;2.40;;;2.15;;
64031;SDS011;50278;47.796;11.968;2022-09-16T08:35:00;3.83;;;2.00;;
64031;SDS011;50278;47.796;11.968;2022-09-16T08:37:26;3.40;;;2.30;;
64031;SDS011;50278;47.796;11.968;2022-09-16T08:39:51;2.38;;;2.05;;
64031;SDS011;50278;47.796;11.968;2022-09-16T08:42:27;3.08;;;1.80;;
64031;SDS011;50278;47.796;11.968;2022-09-16T08:44:57;3.85;;;2.05;;
64031;SDS011;50278;47.796;11.968;2022-09-16T08:50:08;4.38;;;1.85;;
64031;SDS011;50278;47.796;11.968;2022-09-16T08:52:39;2.67;;;1.83;;
64031;SDS011;50278;47.796;11.968;2022-09-16T08:58:20;2.53;;;2.13;;
64031;SDS011;50278;47.796;11.968;2022-09-16T09:03:53;2.67;;;2.10;;
64031;SDS011;50278;47.796;11.968;2022-09-16T09:28:12;3.65;;;1.77;;
64031;SDS011;50278;47.796;11.968;2022-09-16T09:33:51;2.65;;;1.92;;
64031;SDS011;50278;47.796;11.968;2022-09-16T09:41:44;3.08;;;1.77;;
64031;SDS011;50278;47.796;11.968;2022-09-16T09:47:22;7.28;;;2.72;;
64031;SDS011;50278;47.796;11.968;2022-09-16T09:50:18;3.50;;;2.45;;
64031;SDS011;50278;47.796;11.968;2022-09-16T09:52:47;2.50;;;2.28;;
64031;SDS011;50278;47.796;11.968;2022-09-16T09:55:26;3.80;;;2.53;;
64031;SDS011;50278;47.796;11.968;2022-09-16T09:58:39;3.42;;;2.67;;
64031;SDS011;50278;47.796;11.968;2022-09-16T10:01:01;3.67;;;2.05;;
64031;SDS011;50278;47.796;11.968;2022-09-16T10:03:28;3.15;;;2.10;;
64031;SDS011;50278;47.796;11.968;2022-09-16T10:05:54;3.95;;;2.10;;
64031;SDS011;50278;47.796;11.968;2022-09-16T10:10:47;3.03;;;2.55;;
64031;SDS011;50278;47.796;11.968;2022-09-16T10:13:18;3.10;;;2.63;;
64031;SDS011;50278;47.796;11.968;2022-09-16T10:15:45;4.97;;;3.28;;
64031;SDS011;50278;47.796;11.968;2022-09-16T10:18:12;4.57;;;3.42;;
64031;SDS011;50278;47.796;11.968;2022-09-16T10:21:35;4.35;;;3.70;;
64031;SDS011;50278;47.796;11.968;2022-09-16T10:23:52;5.10;;;3.50;;
64031;SDS011;50278;47.796;11.968;2022-09-16T10:26:21;6.60;;;4.05;;
64031;SDS011;50278;47.796;11.968;2022-09-16T10:31:19;5.47;;;3.67;;
64031;SDS011;50278;47.796;11.968;2022-09-16T10:33:46;5.72;;;3.60;;
64031;SDS011;50278;47.796;11.968;2022-09-16T10:36:22;4.57;;;3.72;;
64031;SDS011;50278;47.796;11.968;2022-09-16T10:38:57;5.13;;;3.58;;
64031;SDS011;50278;47.796;11.968;2022-09-16T10:41:25;6.25;;;3.63;;
64031;SDS011;50278;47.796;11.968;2022-09-16T10:43:57;7.00;;;4.20;;
64031;SDS011;50278;47.796;11.968;2022-09-16T10:46:36;4.80;;;3.85;;
64031;SDS011;50278;47.796;11.968;2022-09-16T10:49:08;4.18;;;3.78;;
64031;SDS011;50278;47.796;11.968;2022-09-16T10:51:34;4.80;;;4.30;;
64031;SDS011;50278;47.796;11.968;2022-09-16T10:54:01;6.38;;;4.10;;
64031;SDS011;50278;47.796;11.968;2022-09-16T10:56:34;5.22;;;3.85;;
64031;SDS011;50278;47.796;11.968;2022-09-16T10:59:14;6.45;;;4.57;;
64031;SDS011;50278;47.796;11.968;2022-09-16T11:07:47;5.75;;;3.50;;
64031;SDS011;50278;47.796;11.968;2022-09-16T11:24:38;5.03;;;4.53;;
64031;SDS011;50278;47.796;11.968;2022-09-16T11:27:26;6.15;;;5.00;;
64031;SDS011;50278;47.796;11.968;2022-09-16T11:30:07;5.80;;;4.63;;
64031;SDS011;50278;47.796;11.968;2022-09-16T11:38:17;5.20;;;4.30;;
64031;SDS011;50278;47.796;11.968;2022-09-16T11:41:07;3.60;;;3.23;;
64031;SDS011;50278;47.796;11.968;2022-09-16T11:43:45;5.10;;;3.40;;
64031;SDS011;50278;47.796;11.968;2022-09-16T11:51:37;3.30;;;2.53;;
64031;SDS011;50278;47.796;11.968;2022-09-16T11:57:30;3.05;;;2.53;;
64031;SDS011;50278;47.796;11.968;2022-09-16T12:00:04;3.20;;;2.30;;
64031;SDS011;50278;47.796;11.968;2022-09-16T12:02:52;3.08;;;2.78;;
64031;SDS011;50278;47.796;11.968;2022-09-16T12:08:18;3.60;;;2.35;;
64031;SDS011;50278;47.796;11.968;2022-09-16T12:13:48;2.75;;;2.03;;
64031;SDS011;50278;47.796;11.968;2022-09-16T12:16:20;2.58;;;2.10;;
64031;SDS011;50278;47.796;11.968;2022-09-16T12:18:55;2.30;;;2.10;;
64031;SDS011;50278;47.796;11.968;2022-09-16T12:21:26;2.65;;;2.20;;
64031;SDS011;50278;47.796;11.968;2022-09-16T12:29:48;3.05;;;2.15;;
64031;SDS011;50278;47.796;11.968;2022-09-16T12:32:39;4.57;;;2.33;;
64031;SDS011;50278;47.796;11.968;2022-09-16T12:35:16;3.33;;;2.40;;
64031;SDS011;50278;47.796;11.968;2022-09-16T12:37:52;2.33;;;2.08;;
64031;SDS011;50278;47.796;11.968;2022-09-16T12:43:36;3.72;;;2.33;;
64031;SDS011;50278;47.796;11.968;2022-09-16T12:46:39;2.92;;;1.60;;
64031;SDS011;50278;47.796;11.968;2022-09-16T13:03:15;3.13;;;1.40;;
64031;SDS011;50278;47.796;11.968;2022-09-16T13:05:50;1.80;;;1.50;;
64031;SDS011;50278;47.796;11.968;2022-09-16T13:08:22;2.17;;;1.83;;
64031;SDS011;50278;47.796;11.968;2022-09-16T13:10:59;1.60;;;1.40;;
64031;SDS011;50278;47.796;11.968;2022-09-16T13:13:33;2.92;;;1.80;;
64031;SDS011;50278;47.796;11.968;2022-09-16T13:16:02;1.48;;;1.33;;
64031;SDS011;50278;47.796;11.968;2022-09-16T13:18:47;1.20;;;1.00;;
64031;SDS011;50278;47.796;11.968;2022-09-16T13:21:21;2.10;;;1.45;;
64031;SDS011;50278;47.796;11.968;2022-09-16T13:26:44;1.40;;;0.95;;
64031;SDS011;50278;47.796;11.968;2022-09-16T13:32:27;2.88;;;1.23;;
64031;SDS011;50278;47.796;11.968;2022-09-16T13:35:04;5.30;;;1.70;;
64031;SDS011;50278;47.796;11.968;2022-09-16T13:37:49;2.08;;;1.50;;
64031;SDS011;50278;47.796;11.968;2022-09-16T13:40:21;4.78;;;1.60;;
64031;SDS011;50278;47.796;11.968;2022-09-16T13:42:49;2.38;;;1.70;;
64031;SDS011;50278;47.796;11.968;2022-09-16T13:48:14;1.73;;;1.60;;
64031;SDS011;50278;47.796;11.968;2022-09-16T13:50:50;2.88;;;1.70;;
64031;SDS011;50278;47.796;11.968;2022-09-16T13:56:06;3.40;;;1.80;;
64031;SDS011;50278;47.796;11.968;2022-09-16T13:58:36;2.42;;;1.70;;
64031;SDS011;50278;47.796;11.968;2022-09-16T14:12:19;2.85;;;2.35;;
64031;SDS011;50278;47.796;11.968;2022-09-16T14:14:51;2.65;;;1.88;;
64031;SDS011;50278;47.796;11.968;2022-09-16T14:17:29;2.45;;;1.77;;
64031;SDS011;50278;47.796;11.968;2022-09-16T14:20:00;2.17;;;1.88;;
64031;SDS011;50278;47.796;11.968;2022-09-16T14:22:26;2.42;;;1.85;;
64031;SDS011;50278;47.796;11.968;2022-09-16T14:24:53;1.60;;;1.50;;
64031;SDS011;50278;47.796;11.968;2022-09-16T14:29:57;2.00;;;1.30;;
64031;SDS011;50278;47.796;11.968;2022-09-16T14:32:28;3.13;;;1.60;;
64031;SDS011;50278;47.796;11.968;2022-09-16T14:34:56;2.70;;;1.63;;
64031;SDS011;50278;47.796;11.968;2022-09-16T14:37:26;1.95;;;1.77;;
64031;SDS011;50278;47.796;11.968;2022-09-16T14:39:53;3.08;;;1.50;;
64031;SDS011;50278;47.796;11.968;2022-09-16T14:42:26;1.90;;;1.70;;
64031;SDS011;50278;47.796;11.968;2022-09-16T14:44:54;2.38;;;1.60;;
64031;SDS011;50278;47.796;11.968;2022-09-16T14:47:28;2.78;;;1.70;;
64031;SDS011;50278;47.796;11.968;2022-09-16T14:52:36;4.05;;;1.95;;
64031;SDS011;50278;47.796;11.968;2022-09-16T14:55:06;1.58;;;1.38;;
64031;SDS011;50278;47.796;11.968;2022-09-16T14:57:43;2.55;;;1.60;;
64031;SDS011;50278;47.796;11.968;2022-09-16T15:00:11;2.00;;;1.33;;
64031;SDS011;50278;47.796;11.968;2022-09-16T15:02:41;2.35;;;1.73;;
64031;SDS011;50278;47.796;11.968;2022-09-16T15:07:52;2.38;;;2.08;;
64031;SDS011;50278;47.796;11.968;2022-09-16T15:10:26;1.75;;;1.35;;
64031;SDS011;50278;47.796;11.968;2022-09-16T15:12:54;1.50;;;1.20;;
64031;SDS011;50278;47.796;11.968;2022-09-16T15:15:26;3.08;;;1.65;;
64031;SDS011;50278;47.796;11.968;2022-09-16T15:18:11;1.73;;;1.50;;
64031;SDS011;50278;47.796;11.968;2022-09-16T15:20:56;2.25;;;1.10;;
64031;SDS011;50278;47.796;11.968;2022-09-16T15:23:26;1.98;;;1.70;;
64031;SDS011;50278;47.796;11.968;2022-09-16T15:25:55;2.42;;;1.25;;
64031;SDS011;50278;47.796;11.968;2022-09-16T15:28:22;1.40;;;1.30;;
64031;SDS011;50278;47.796;11.968;2022-09-16T15:30:49;3.35;;;1.50;;
64031;SDS011;50278;47.796;11.968;2022-09-16T15:35:57;2.42;;;1.70;;
64031;SDS011;50278;47.796;11.968;2022-09-16T15:38:23;4.47;;;2.58;;
64031;SDS011;50278;47.796;11.968;2022-09-16T15:41:10;2.03;;;1.33;;
64031;SDS011;50278;47.796;11.968;2022-09-16T15:43:38;1.70;;;1.55;;
64031;SDS011;50278;47.796;11.968;2022-09-16T15:46:13;1.63;;;1.38;;
64031;SDS011;50278;47.796;11.968;2022-09-16T15:48:46;1.80;;;1.40;;
64031;SDS011;50278;47.796;11.968;2022-09-16T15:51:24;1.95;;;1.10;;
64031;SDS011;50278;47.796;11.968;2022-09-16T15:54:22;1.55;;;1.10;;
64031;SDS011;50278;47.796;11.968;2022-09-16T16:00:11;1.40;;;1.10;;
64031;SDS011;50278;47.796;11.968;2022-09-16T16:02:42;2.10;;;1.10;;
64031;SDS011;50278;47.796;11.968;2022-09-16T16:05:12;1.80;;;1.33;;
64031;SDS011;50278;47.796;11.968;2022-09-16T16:07:49;1.85;;;1.30;;
64031;SDS011;50278;47.796;11.968;2022-09-16T16:10:24;1.55;;;1.25;;
64031;SDS011;50278;47.796;11.968;2022-09-16T16:12:59;1.65;;;1.20;;
64031;SDS011;50278;47.796;11.968;2022-09-16T16:15:35;2.50;;;1.40;;
64031;SDS011;50278;47.796;11.968;2022-09-16T16:18:03;1.50;;;1.25;;
64031;SDS011;50278;47.796;11.968;2022-09-16T16:20:31;2.17;;;1.60;;
64031;SDS011;50278;47.796;11.968;2022-09-16T16:22:59;1.35;;;1.20;;
64031;SDS011;50278;47.796;11.968;2022-09-16T16:25:24;1.42;;;1.30;;
64031;SDS011;50278;47.796;11.968;2022-09-16T16:27:50;1.40;;;1.10;;
64031;SDS011;50278;47.796;11.968;2022-09-16T16:30:16;2.95;;;1.33;;
64031;SDS011;50278;47.796;11.968;2022-09-16T16:32:43;2.30;;;1.52;;
64031;SDS011;50278;47.796;11.968;2022-09-16T16:35:08;3.15;;;1.42;;
64031;SDS011;50278;47.796;11.968;2022-09-16T16:37:34;2.08;;;1.75;;
64031;SDS011;50278;47.796;11.968;2022-09-16T16:40:00;1.40;;;1.20;;
64031;SDS011;50278;47.796;11.968;2022-09-16T16:42:27;2.80;;;1.70;;
64031;SDS011;50278;47.796;11.968;2022-09-16T16:44:52;2.63;;;2.03;;
64031;SDS011;50278;47.796;11.968;2022-09-16T16:47:18;1.50;;;1.40;;
64031;SDS011;50278;47.796;11.968;2022-09-16T16:49:43;2.47;;;2.28;;
64031;SDS011;50278;47.796;11.968;2022-09-16T16:52:09;2.70;;;1.80;;
64031;SDS011;50278;47.796;11.968;2022-09-16T16:54:35;3.05;;;2.58;;
64031;SDS011;50278;47.796;11.968;2022-09-16T16:57:01;2.72;;;1.80;;
64031;SDS011;50278;47.796;11.968;2022-09-16T16:59:28;1.98;;;1.77;;
64031;SDS011;50278;47.796;11.968;2022-09-16T17:01:54;1.75;;;1.55;;
64031;SDS011;50278;47.796;11.968;2022-09-16T17:04:20;3.05;;;2.25;;
64031;SDS011;50278;47.796;11.968;2022-09-16T17:06:47;2.67;;;1.95;;
64031;SDS011;50278;47.796;11.968;2022-09-16T17:09:12;2.88;;;2.67;;
64031;SDS011;50278;47.796;11.968;2022-09-16T17:14:23;2.35;;;2.15;;
64031;SDS011;50278;47.796;11.968;2022-09-16T17:16:50;2.75;;;1.77;;
64031;SDS011;50278;47.796;11.968;2022-09-16T17:19:19;3.20;;;1.95;;
64031;SDS011;50278;47.796;11.968;2022-09-16T17:21:46;2.60;;;1.88;;
64031;SDS011;50278;47.796;11.968;2022-09-16T17:24:13;2.42;;;1.40;;
64031;SDS011;50278;47.796;11.968;2022-09-16T17:26:39;2.10;;;1.67;;
64031;SDS011;50278;47.796;11.968;2022-09-16T17:29:05;3.83;;;1.67;;
64031;SDS011;50278;47.796;11.968;2022-09-16T17:31:32;2.03;;;1.50;;
64031;SDS011;50278;47.796;11.968;2022-09-16T17:33:59;3.20;;;1.77;;
64031;SDS011;50278;47.796;11.968;2022-09-16T17:36:27;2.13;;;1.67;;
64031;SDS011;50278;47.796;11.968;2022-09-16T17:39:04;1.83;;;1.63;;
64031;SDS011;50278;47.796;11.968;2022-09-16T17:41:41;1.58;;;1.35;;
64031;SDS011;50278;47.796;11.968;2022-09-16T17:44:07;2.92;;;1.38;;
64031;SDS011;50278;47.796;11.968;2022-09-16T17:46:34;1.80;;;1.50;;
64031;SDS011;50278;47.796;11.968;2022-09-16T17:51:30;2.30;;;1.33;;
64031;SDS011;50278;47.796;11.968;2022-09-16T17:53:57;2.55;;;1.10;;
64031;SDS011;50278;47.796;11.968;2022-09-16T17:56:22;1.52;;;1.40;;
64031;SDS011;50278;47.796;11.968;2022-09-16T17:58:49;1.90;;;1.35;;
64031;SDS011;50278;47.796;11.968;2022-09-16T18:01:17;2.33;;;1.40;;
64031;SDS011;50278;47.796;11.968;2022-09-16T18:03:45;1.40;;;1.25;;
64031;SDS011;50278;47.796;11.968;2022-09-16T18:06:18;2.25;;;1.30;;
64031;SDS011;50278;47.796;11.968;2022-09-16T18:08:44;1.40;;;1.23;;
64031;SDS011;50278;47.796;11.968;2022-09-16T18:11:10;1.88;;;1.58;;